Time;durP1;ratioP1;P1;durP2;ratioP2;P2;SDS_P1;SDS_P2;PMS_P1;PMS_P2;Temp;Humidity;BMP_temperature;BMP_pressure;BME280_temperature;BME280_humidity;BME280_pressure;Samples;Min_cycle;Max_cycle;Signal;HPM_P1;HPM_P2
2023/10/30 00:00:23;;;;;;;5.20;3.23;;;;;;;12.95;100.00;99351.74;5056228;56;1138823;-71
2023/10/30 00:05:30;;;;;;;6.20;3.40;;;;;;;12.93;100.00;99355.88;5076292;56;1138973;-72
2023/10/30 00:10:36;;;;;;;10.07;3.30;;;;;;;12.92;100.00;99350.23;5055599;56;1180307;-76
2023/10/30 00:15:42;;;;;;;6.13;3.73;;;;;;;12.89;100.00;99358.52;5095262;56;1140884;-73
2023/10/30 00:20:47;;;;;;;5.80;3.43;;;;;;;12.85;100.00;99353.69;5088710;56;1148544;-75
2023/10/30 00:25:55;;;;;;;6.17;3.60;;;;;;;12.82;100.00;99347.41;5032010;57;1138991;-71
2023/10/30 00:31:00;;;;;;;6.45;3.92;;;;;;;12.79;100.00;99370.27;5043892;57;1232904;-73
2023/10/30 00:36:06;;;;;;;5.17;3.23;;;;;;;12.74;100.00;99383.19;5075655;57;1138926;-72
2023/10/30 00:41:12;;;;;;;8.17;3.93;;;;;;;12.69;100.00;99383.16;5055936;56;1139071;-77
2023/10/30 00:46:17;;;;;;;10.07;4.00;;;;;;;12.67;100.00;99397.59;5055784;57;1138762;-73
2023/10/30 00:51:23;;;;;;;7.90;3.97;;;;;;;12.64;100.00;99387.30;5078599;56;1141216;-72
2023/10/30 00:56:28;;;;;;;5.60;3.53;;;;;;;12.63;100.00;99398.91;5142586;56;1139064;-72
2023/10/30 01:01:34;;;;;;;8.23;3.23;;;;;;;12.65;100.00;99385.82;5141393;56;1242784;-75
2023/10/30 01:06:40;;;;;;;6.17;3.77;;;;;;;12.64;100.00;99393.93;5163235;56;1138823;-70
2023/10/30 01:11:46;;;;;;;8.74;3.36;;;;;;;12.63;100.00;99382.98;5135665;56;1249486;-74
2023/10/30 01:16:52;;;;;;;6.03;3.63;;;;;;;12.64;100.00;99399.23;5137952;56;1176986;-73
2023/10/30 01:21:58;;;;;;;4.20;3.57;;;;;;;12.68;100.00;99413.82;5047241;56;1255237;-77
2023/10/30 01:27:04;;;;;;;4.47;3.20;;;;;;;12.68;100.00;99413.82;5104313;56;1235045;-73
2023/10/30 01:32:09;;;;;;;7.63;3.53;;;;;;;12.68;100.00;99391.27;5123221;56;1244060;-74
2023/10/30 01:37:15;;;;;;;9.30;3.52;;;;;;;12.70;100.00;99395.92;5122810;56;1248281;-74
2023/10/30 01:42:21;;;;;;;2.90;2.70;;;;;;;12.72;100.00;99402.41;5145296;56;1244110;-73
2023/10/30 01:47:27;;;;;;;6.77;3.20;;;;;;;12.74;100.00;99410.55;5122740;56;1244340;-74
2023/10/30 01:52:33;;;;;;;4.50;3.40;;;;;;;12.75;100.00;99413.53;5100753;56;1253112;-76
2023/10/30 01:57:39;;;;;;;8.83;3.67;;;;;;;12.76;100.00;99427.63;5062181;56;1138911;-76
2023/10/30 02:02:45;;;;;;;9.20;3.47;;;;;;;12.74;100.00;99422.98;5040935;56;1237949;-73
2023/10/30 02:07:50;;;;;;;9.00;4.60;;;;;;;12.73;100.00;99415.52;5040595;56;1246081;-74
2023/10/30 02:12:56;;;;;;;4.80;3.12;;;;;;;12.71;100.00;99429.43;5040487;56;1253151;-75
2023/10/30 02:18:02;;;;;;;3.45;2.85;;;;;;;12.69;100.00;99444.67;5060857;56;1254292;-73
2023/10/30 02:23:08;;;;;;;5.83;2.97;;;;;;;12.70;100.00;99464.91;5042823;56;1254870;-73
2023/10/30 02:28:13;;;;;;;6.10;3.33;;;;;;;12.69;100.00;99456.61;5037847;57;1138813;-75
2023/10/30 02:33:19;;;;;;;9.93;3.03;;;;;;;12.65;100.00;99461.42;5139951;56;1138932;-76
2023/10/30 02:38:25;;;;;;;5.07;2.70;;;;;;;12.63;100.00;99455.94;5126663;56;1139146;-71
2023/10/30 02:43:30;;;;;;;5.80;2.80;;;;;;;12.59;100.00;99465.19;5126395;56;1139019;-71
2023/10/30 02:48:36;;;;;;;6.07;3.57;;;;;;;12.57;100.00;99471.14;5146129;56;1139254;-73
2023/10/30 02:53:42;;;;;;;5.13;2.73;;;;;;;12.51;100.00;99476.59;5083286;56;1181086;-75
2023/10/30 02:58:48;;;;;;;6.10;3.45;;;;;;;12.48;100.00;99472.09;5062060;56;1139328;-73
2023/10/30 03:03:54;;;;;;;9.45;3.02;;;;;;;12.43;100.00;99473.88;4958282;57;1237405;-74
2023/10/30 03:09:00;;;;;;;5.58;2.42;;;;;;;12.39;100.00;99482.29;5062572;56;1139003;-76
2023/10/30 03:14:06;;;;;;;4.73;2.53;;;;;;;12.36;100.00;99499.86;5041879;56;1231271;-74
2023/10/30 03:19:12;;;;;;;5.80;2.63;;;;;;;12.33;100.00;99495.20;5051369;56;1142513;-75
2023/10/30 03:24:17;;;;;;;4.10;2.70;;;;;;;12.29;100.00;99483.73;5072391;57;1138803;-73
2023/10/30 03:29:24;;;;;;;4.63;3.07;;;;;;;12.29;100.00;99502.28;5128051;56;1138917;-74
2023/10/30 03:34:29;;;;;;;7.47;3.23;;;;;;;12.22;100.00;99510.02;5136770;56;1138804;-72
2023/10/30 03:39:35;;;;;;;6.07;2.93;;;;;;;12.17;100.00;99503.52;5157493;56;1138775;-74
2023/10/30 03:44:40;;;;;;;3.10;2.37;;;;;;;12.10;100.00;99523.66;5136439;56;1138724;-77
2023/10/30 03:49:47;;;;;;;5.53;2.93;;;;;;;12.04;100.00;99507.06;5137339;56;1138903;-76
2023/10/30 03:54:53;;;;;;;9.93;3.15;;;;;;;11.99;100.00;99510.17;5075433;56;1138809;-72
2023/10/30 03:59:58;;;;;;;5.03;3.10;;;;;;;11.94;100.00;99513.76;5073155;56;1138974;-76
2023/10/30 04:05:04;;;;;;;8.30;2.98;;;;;;;11.88;100.00;99526.30;5053522;56;1139231;-77
2023/10/30 04:10:10;;;;;;;4.20;2.63;;;;;;;11.84;100.00;99501.09;5053404;56;1139124;-70
2023/10/30 04:15:18;;;;;;;4.47;2.60;;;;;;;11.76;100.00;99548.22;5097775;56;1138855;-71
2023/10/30 04:20:23;;;;;;;4.30;2.90;;;;;;;11.70;100.00;99532.88;5071610;56;1139018;-75
2023/10/30 04:25:29;;;;;;;12.73;2.90;;;;;;;11.66;100.00;99534.65;5125510;56;1138811;-71
2023/10/30 04:30:35;;;;;;;7.90;3.23;;;;;;;11.61;100.00;99520.03;5131669;56;1140925;-74
2023/10/30 04:35:41;;;;;;;4.50;2.67;;;;;;;11.56;100.00;99540.85;5125278;56;1139061;-76
2023/10/30 04:40:46;;;;;;;5.53;2.73;;;;;;;11.52;100.00;99547.42;5136895;56;1139016;-72
2023/10/30 04:45:52;;;;;;;7.77;3.90;;;;;;;11.47;100.00;99541.73;5086989;56;1138931;-73
2023/10/30 04:50:58;;;;;;;5.20;2.52;;;;;;;11.41;100.00;99538.37;5108682;56;1138990;-72
2023/10/30 04:56:06;;;;;;;3.73;2.53;;;;;;;11.36;100.00;99547.23;5099823;56;1138950;-73
2023/10/30 05:01:12;;;;;;;4.77;2.80;;;;;;;11.31;100.00;99542.03;5053552;56;1138747;-75
2023/10/30 05:06:18;;;;;;;2.60;2.40;;;;;;;11.25;100.00;99530.23;5073080;56;1138687;-74
2023/10/30 05:11:24;;;;;;;4.20;3.33;;;;;;;11.19;100.00;99530.81;5058998;56;1138784;-76
2023/10/30 05:16:30;;;;;;;11.43;4.13;;;;;;;11.17;100.00;99537.57;5073551;56;1138931;-74
2023/10/30 05:21:35;;;;;;;3.80;2.87;;;;;;;11.14;100.00;99544.99;5082018;56;1140801;-74
2023/10/30 05:26:41;;;;;;;11.90;3.20;;;;;;;11.09;100.00;99548.07;5042853;56;1138848;-74
2023/10/30 05:31:46;;;;;;;9.57;4.20;;;;;;;11.05;100.00;99569.17;5042672;56;1140775;-75
2023/10/30 05:36:52;;;;;;;8.67;4.90;;;;;;;11.01;100.00;99569.11;5041594;56;1139271;-74
2023/10/30 05:41:59;;;;;;;6.45;4.37;;;;;;;10.97;100.00;99566.44;5082855;56;1139227;-74
2023/10/30 05:47:05;;;;;;;10.25;4.33;;;;;;;10.95;100.00;99586.91;5060039;56;1139031;-71
2023/10/30 05:52:10;;;;;;;4.40;3.20;;;;;;;10.87;100.00;99592.90;5044362;56;1140877;-76
2023/10/30 05:57:17;;;;;;;5.77;4.07;;;;;;;10.86;100.00;99594.36;5099452;56;1138849;-76
2023/10/30 06:02:22;;;;;;;6.20;3.40;;;;;;;10.84;100.00;99580.48;4953594;58;1138854;-77
2023/10/30 06:07:28;;;;;;;3.43;3.00;;;;;;;10.83;100.00;99577.48;5084498;56;1138878;-76
2023/10/30 06:12:33;;;;;;;4.50;2.93;;;;;;;10.83;100.00;99601.28;4993104;57;1138994;-73
2023/10/30 06:17:39;;;;;;;11.12;3.25;;;;;;;10.83;100.00;99595.51;5104486;56;1138800;-77
2023/10/30 06:22:45;;;;;;;11.43;3.20;;;;;;;10.84;100.00;99599.83;5042426;56;1140709;-75
2023/10/30 06:27:50;;;;;;;4.40;2.80;;;;;;;10.89;100.00;99582.18;5061227;56;1140822;-74
2023/10/30 06:32:56;;;;;;;9.07;2.60;;;;;;;10.98;100.00;99571.23;5098849;56;1138769;-74
2023/10/30 06:38:01;;;;;;;4.80;2.70;;;;;;;11.08;100.00;99586.58;5048462;56;1138741;-75
2023/10/30 06:43:09;;;;;;;7.00;3.02;;;;;;;11.11;100.00;99600.85;5050625;56;1139009;-76
2023/10/30 06:48:14;;;;;;;2.87;2.53;;;;;;;11.10;100.00;99622.51;5085932;56;1138704;-74
2023/10/30 06:53:20;;;;;;;10.17;3.07;;;;;;;11.09;100.00;99631.42;5050104;56;1138719;-71
2023/10/30 06:58:26;;;;;;;8.50;2.67;;;;;;;11.11;100.00;99622.86;5113570;56;1140971;-67
2023/10/30 07:03:35;;;;;;;2.93;2.60;;;;;;;11.24;100.00;99630.47;5142142;56;1138921;-71
2023/10/30 07:08:41;;;;;;;3.73;2.30;;;;;;;11.37;100.00;99624.35;5118806;56;1139157;-69
2023/10/30 07:13:46;;;;;;;4.30;2.77;;;;;;;11.47;100.00;99625.13;5071883;56;1138850;-70
2023/10/30 07:18:53;;;;;;;2.44;2.20;;;;;;;11.65;100.00;99634.45;5112617;56;1139001;-71
2023/10/30 07:23:59;;;;;;;5.75;2.67;;;;;;;11.87;100.00;99647.84;5114792;55;1138822;-69
2023/10/30 07:29:04;;;;;;;5.85;2.42;;;;;;;12.09;100.00;99661.14;5053634;56;1138924;-72
2023/10/30 07:34:10;;;;;;;3.10;2.70;;;;;;;12.24;100.00;99651.20;5052821;56;1140817;-72
2023/10/30 07:39:16;;;;;;;5.17;1.87;;;;;;;12.44;100.00;99659.85;5077939;56;1138808;-76
2023/10/30 07:44:21;;;;;;;4.23;2.37;;;;;;;12.69;100.00;99664.86;5085246;56;1139201;-76
2023/10/30 07:49:27;;;;;;;7.25;2.50;;;;;;;12.92;100.00;99681.15;5109511;56;1138862;-72
2023/10/30 07:54:33;;;;;;;4.73;2.30;;;;;;;13.18;100.00;99687.83;5073224;56;1138871;-74
2023/10/30 07:59:38;;;;;;;4.30;2.50;;;;;;;13.43;100.00;99708.26;5070714;56;1138671;-73
2023/10/30 08:04:44;;;;;;;2.63;2.40;;;;;;;13.54;100.00;99697.36;5053371;56;1138980;-69
2023/10/30 08:09:49;;;;;;;6.22;2.80;;;;;;;13.63;100.00;99713.66;5063993;56;1138803;-70
2023/10/30 08:14:55;;;;;;;6.83;2.50;;;;;;;13.64;100.00;99700.72;5119436;56;1139293;-70
2023/10/30 08:20:01;;;;;;;4.50;2.27;;;;;;;13.53;100.00;99682.90;5073714;56;1139099;-68
2023/10/30 08:25:07;;;;;;;7.47;2.25;;;;;;;13.67;100.00;99691.11;5054122;56;1139108;-70
2023/10/30 08:30:13;;;;;;;5.20;2.12;;;;;;;13.83;100.00;99661.11;5071963;56;1138846;-69
2023/10/30 08:35:19;;;;;;;3.63;1.77;;;;;;;13.99;100.00;99687.75;5043686;56;1138785;-70
2023/10/30 08:40:25;;;;;;;2.40;2.17;;;;;;;14.08;100.00;99688.10;5105339;56;1138912;-68
2023/10/30 08:45:30;;;;;;;2.17;1.70;;;;;;;14.21;100.00;99693.45;5089098;56;1138906;-68
2023/10/30 08:50:36;;;;;;;2.37;1.83;;;;;;;14.33;100.00;99694.83;5044413;56;1138807;-69
2023/10/30 08:55:42;;;;;;;2.93;1.47;;;;;;;14.33;100.00;99700.16;5114091;56;1138956;-69
2023/10/30 09:00:48;;;;;;;2.37;1.72;;;;;;;14.36;100.00;99716.59;5112559;56;1138806;-77
2023/10/30 09:05:55;;;;;;;5.04;1.30;;;;;;;14.39;100.00;99726.08;5102873;56;1138733;-77
2023/10/30 09:11:01;;;;;;;5.35;1.57;;;;;;;14.46;100.00;99739.12;5031819;56;1138810;-76
2023/10/30 09:16:08;;;;;;;5.60;1.55;;;;;;;14.55;100.00;99742.12;5043445;56;1139299;-72
2023/10/30 09:21:14;;;;;;;9.13;1.43;;;;;;;14.66;100.00;99763.12;5090322;55;1139065;-73
2023/10/30 09:26:19;;;;;;;5.07;2.27;;;;;;;14.81;100.00;99779.28;5078338;56;1138839;-78
2023/10/30 09:31:25;;;;;;;2.07;1.03;;;;;;;14.89;100.00;99764.63;5042759;56;1138588;-77
2023/10/30 09:36:31;;;;;;;5.07;2.33;;;;;;;15.02;100.00;99782.28;5156777;56;1139002;-75
2023/10/30 09:41:43;;;;;;;5.43;1.73;;;;;;;15.09;100.00;99772.64;5104333;56;1138547;-73
2023/10/30 09:46:49;;;;;;;11.37;1.67;;;;;;;15.11;100.00;99761.83;5057212;57;1138937;-75
2023/10/30 09:51:59;;;;;;;2.47;1.85;;;;;;;15.11;100.00;99769.32;5063090;56;1140939;-76
2023/10/30 09:57:06;;;;;;;4.95;1.20;;;;;;;15.06;100.00;99751.66;5119734;56;1138952;-76
2023/10/30 10:02:12;;;;;;;15.83;2.50;;;;;;;15.05;100.00;99762.48;5085651;56;1138922;-68
2023/10/30 10:07:19;;;;;;;8.77;3.57;;;;;;;15.00;100.00;99758.14;5092939;56;1141055;-69
2023/10/30 10:12:25;;;;;;;3.47;1.73;;;;;;;15.07;100.00;99761.82;5120371;56;1139057;-71
2023/10/30 10:17:30;;;;;;;13.20;5.00;;;;;;;15.09;100.00;99778.47;5090273;56;1138885;-72
2023/10/30 10:22:39;;;;;;;13.37;4.50;;;;;;;15.10;100.00;99772.98;5092097;56;1141031;-69
2023/10/30 10:27:47;;;;;;;13.93;3.62;;;;;;;15.13;100.00;99773.95;5128043;56;1140872;-68
2023/10/30 10:32:53;;;;;;;10.27;3.40;;;;;;;15.23;100.00;99774.30;5100816;56;1141010;-69
2023/10/30 10:38:13;;;;;;;7.93;3.03;;;;;;;15.35;100.00;99768.96;5122836;56;1141143;-72
2023/10/30 10:43:20;;;;;;;6.47;2.23;;;;;;;15.37;100.00;99782.95;5070608;56;1138797;-69
2023/10/30 10:48:27;;;;;;;12.57;2.77;;;;;;;15.39;100.00;99759.64;5041674;57;1138897;-68
2023/10/30 10:53:36;;;;;;;34.87;14.87;;;;;;;15.46;100.00;99749.45;5044788;56;1140837;-70
2023/10/30 10:58:51;;;;;;;18.33;3.33;;;;;;;15.61;100.00;99746.96;5067750;56;1142973;-70
2023/10/30 11:03:57;;;;;;;2.87;1.77;;;;;;;15.72;100.00;99729.80;5028539;57;1141032;-70
2023/10/30 11:09:22;;;;;;;7.95;2.27;;;;;;;15.80;100.00;99734.59;5065231;56;1139208;-68
2023/10/30 11:14:50;;;;;;;2.60;1.57;;;;;;;15.90;100.00;99743.71;5061392;56;1138598;-68
2023/10/30 11:20:06;;;;;;;14.93;3.60;;;;;;;16.02;100.00;99742.36;5045511;56;1139057;-68
2023/10/30 11:25:43;;;;;;;4.75;1.85;;;;;;;16.17;100.00;99746.46;5052770;56;1140771;-71
2023/10/30 11:30:51;;;;;;;11.48;2.80;;;;;;;16.09;100.00;99741.98;5059774;56;1138979;-69
2023/10/30 11:36:23;;;;;;;6.57;2.47;;;;;;;16.11;100.00;99724.47;5093322;56;1259091;-68
2023/10/30 11:41:29;;;;;;;2.47;1.40;;;;;;;16.21;100.00;99717.58;5049555;56;1138846;-69
2023/10/30 11:46:41;;;;;;;5.07;2.47;;;;;;;16.14;100.00;99721.45;5065444;56;1138619;-68
2023/10/30 11:51:51;;;;;;;7.43;3.00;;;;;;;16.01;100.00;99735.86;5074393;56;1138972;-71
2023/10/30 11:56:58;;;;;;;12.43;2.20;;;;;;;15.90;100.00;99739.71;5071525;56;1138795;-71
2023/10/30 12:02:06;;;;;;;26.40;11.33;;;;;;;15.81;100.00;99738.09;5044667;56;1141178;-68
2023/10/30 12:07:16;;;;;;;6.35;2.47;;;;;;;15.82;100.00;99733.09;5085208;56;1143096;-69
2023/10/30 12:12:21;;;;;;;8.73;2.77;;;;;;;15.82;100.00;99719.25;5051852;56;1139166;-70
2023/10/30 12:17:28;;;;;;;6.60;2.53;;;;;;;15.81;100.00;99721.59;5069537;56;1139092;-70
2023/10/30 12:22:39;;;;;;;8.83;3.27;;;;;;;15.88;100.00;99719.58;5065386;56;1138907;-71
2023/10/30 12:27:41;;;;;;;12.10;5.00;;;;;;;16.11;100.00;99715.12;5042568;56;1138932;-70
2023/10/30 12:32:57;;;;;;;36.50;8.20;;;;;;;16.30;100.00;99724.05;5045253;56;1141423;-69
2023/10/30 12:38:06;;;;;;;17.87;5.23;;;;;;;16.27;100.00;99722.22;5043377;57;1141122;-71
2023/10/30 12:43:12;;;;;;;9.63;2.75;;;;;;;16.10;100.00;99718.80;5131758;56;1140853;-72
2023/10/30 12:48:17;;;;;;;18.82;4.78;;;;;;;16.03;100.00;99709.84;5131910;56;1138941;-73
2023/10/30 12:53:24;;;;;;;14.33;4.43;;;;;;;15.98;100.00;99712.20;5077661;55;1140815;-78
2023/10/30 12:58:29;;;;;;;12.03;2.07;;;;;;;15.91;100.00;99708.04;5077025;56;1140973;-77
2023/10/30 13:03:35;;;;;;;5.40;1.83;;;;;;;15.86;100.00;99719.75;5084241;56;1141093;-78
2023/10/30 13:08:41;;;;;;;6.60;1.80;;;;;;;15.77;100.00;99720.27;5136870;56;1139154;-72
2023/10/30 13:13:46;;;;;;;9.57;2.10;;;;;;;15.73;100.00;99714.13;5143321;56;1138883;-76
2023/10/30 13:18:52;;;;;;;8.53;2.58;;;;;;;15.76;100.00;99729.27;5124417;56;1138769;-72
2023/10/30 13:23:57;;;;;;;6.00;1.95;;;;;;;16.11;100.00;99715.12;5131997;56;1138939;-77
2023/10/30 13:29:03;;;;;;;5.23;1.83;;;;;;;16.57;100.00;99707.20;5127980;56;1138916;-77
2023/10/30 13:34:08;;;;;;;8.70;1.95;;;;;;;16.85;100.00;99707.84;5102433;56;1139019;-76
2023/10/30 13:39:15;;;;;;;1.67;1.42;;;;;;;17.13;100.00;99704.60;5129503;56;1139022;-78
2023/10/30 13:44:21;;;;;;;10.63;2.83;;;;;;;17.59;100.00;99695.44;5149604;56;1138785;-73
2023/10/30 13:49:26;;;;;;;9.80;4.13;;;;;;;17.92;100.00;99692.42;5087885;56;1140960;-74
2023/10/30 13:54:32;;;;;;;18.20;4.83;;;;;;;17.92;100.00;99684.39;5101585;56;1138950;-74
2023/10/30 13:59:37;;;;;;;11.00;4.53;;;;;;;17.95;100.00;99688.05;5117244;56;1140911;-73
2023/10/30 14:04:44;;;;;;;15.57;5.80;;;;;;;17.70;100.00;99678.67;5102830;56;1140826;-75
2023/10/30 14:09:49;;;;;;;25.03;7.93;;;;;;;17.46;100.00;99686.41;5133309;56;1140809;-79
2023/10/30 14:14:56;;;;;;;26.10;6.25;;;;;;;17.13;100.00;99683.22;5122558;56;1141104;-77
2023/10/30 14:20:02;;;;;;;7.93;4.33;;;;;;;16.88;100.00;99668.77;5093980;56;1150283;-75
2023/10/30 14:25:13;;;;;;;11.57;3.20;;;;;;;16.75;100.00;99667.72;5138717;56;1138692;-77
2023/10/30 14:30:16;;;;;;;6.55;3.45;;;;;;;16.68;100.00;99654.74;5132277;56;1140834;-74
2023/10/30 14:35:21;;;;;;;22.50;6.30;;;;;;;16.55;100.00;99655.31;5158197;56;1138960;-73
2023/10/30 14:40:27;;;;;;;34.80;10.77;;;;;;;16.51;100.00;99668.69;5140433;56;1141146;-76
2023/10/30 14:45:33;;;;;;;30.13;10.40;;;;;;;16.39;100.00;99660.77;5129176;56;1143190;-74
2023/10/30 14:50:38;;;;;;;26.40;9.60;;;;;;;16.17;100.00;99657.09;5128879;56;1143008;-77
2023/10/30 14:55:44;;;;;;;38.10;16.83;;;;;;;16.03;100.00;99669.34;5126177;56;1141007;-75
2023/10/30 15:00:50;;;;;;;17.40;4.93;;;;;;;15.95;100.00;99665.36;5125363;56;1143106;-74
2023/10/30 15:05:55;;;;;;;18.95;4.97;;;;;;;15.85;100.00;99673.25;5081012;56;1140911;-75
2023/10/30 15:11:02;;;;;;;13.53;4.40;;;;;;;15.75;100.00;99678.27;5122293;56;1140824;-74
2023/10/30 15:16:09;;;;;;;24.00;9.75;;;;;;;15.70;100.00;99673.98;5047290;56;1141018;-76
2023/10/30 15:21:15;;;;;;;32.77;21.53;;;;;;;15.61;100.00;99660.33;5044589;56;1140843;-79
2023/10/30 15:26:21;;;;;;;62.43;29.00;;;;;;;15.65;100.00;99667.49;5109210;56;1143033;-72
2023/10/30 15:31:26;;;;;;;38.47;18.83;;;;;;;15.58;100.00;99670.03;5084730;56;1142897;-76
2023/10/30 15:36:32;;;;;;;42.33;18.93;;;;;;;15.53;100.00;99680.83;5072763;56;1143027;-73
2023/10/30 15:41:37;;;;;;;16.33;8.13;;;;;;;15.41;100.00;99675.05;5098575;56;1142979;-73
2023/10/30 15:46:43;;;;;;;21.33;6.83;;;;;;;15.24;100.00;99684.91;5064518;56;1141246;-76
2023/10/30 15:51:48;;;;;;;14.57;4.83;;;;;;;15.03;100.00;99680.09;5069316;56;1141070;-72
2023/10/30 15:56:54;;;;;;;21.76;8.48;;;;;;;14.90;100.00;99680.27;5072109;56;1141074;-72
2023/10/30 16:02:00;;;;;;;26.80;8.43;;;;;;;14.85;100.00;99679.92;5098984;56;1140961;-72
2023/10/30 16:07:06;;;;;;;57.87;22.63;;;;;;;14.83;100.00;99685.41;5051690;56;1141051;-76
2023/10/30 16:12:12;;;;;;;36.67;18.73;;;;;;;14.81;100.00;99675.45;5078028;56;1142797;-77
2023/10/30 16:17:17;;;;;;;112.10;52.93;;;;;;;14.76;100.00;99673.78;5096724;55;1143069;-74
2023/10/30 16:22:23;;;;;;;407.20;203.90;;;;;;;14.68;100.00;99667.95;5052458;56;1145062;-74
2023/10/30 16:27:28;;;;;;;166.30;91.90;;;;;;;14.52;100.00;99663.94;5051846;56;1147318;-76
2023/10/30 16:32:34;;;;;;;119.50;69.10;;;;;;;14.35;100.00;99656.44;5071631;56;1145023;-76
2023/10/30 16:37:40;;;;;;;96.97;48.97;;;;;;;14.18;100.00;99657.40;5051529;57;1145349;-76
2023/10/30 16:42:46;;;;;;;65.90;34.60;;;;;;;14.02;100.00;99658.19;5051849;57;1143120;-74
2023/10/30 16:47:51;;;;;;;65.57;24.47;;;;;;;13.90;100.00;99667.96;5067455;56;1143132;-76
2023/10/30 16:52:57;;;;;;;39.23;17.60;;;;;;;13.79;100.00;99672.22;5158354;55;1142917;-76
2023/10/30 16:58:05;;;;;;;43.28;23.46;;;;;;;13.71;100.00;99675.19;5151908;55;1152950;-74
2023/10/30 17:03:12;;;;;;;83.20;41.33;;;;;;;13.69;100.00;99667.88;5066473;55;1143237;-74
2023/10/30 17:08:18;;;;;;;130.82;61.28;;;;;;;13.69;100.00;99662.55;5076467;55;1143014;-72
2023/10/30 17:13:23;;;;;;;95.30;44.50;;;;;;;13.68;100.00;99666.70;5092735;56;1145419;-77
2023/10/30 17:18:29;;;;;;;71.73;32.57;;;;;;;13.68;100.00;99664.05;5057356;56;1143181;-77
2023/10/30 17:23:35;;;;;;;79.27;41.60;;;;;;;13.66;100.00;99657.55;5077351;57;1143220;-75
2023/10/30 17:28:41;;;;;;;131.73;78.63;;;;;;;13.63;100.00;99648.56;5057372;56;1142996;-72
2023/10/30 17:33:46;;;;;;;71.03;30.83;;;;;;;13.57;100.00;99641.25;5057226;57;1145032;-72
2023/10/30 17:38:52;;;;;;;71.77;32.97;;;;;;;13.49;100.00;99651.83;5057334;57;1142939;-78
2023/10/30 17:43:58;;;;;;;78.23;40.00;;;;;;;13.45;100.00;99644.33;5090715;56;1142844;-74
2023/10/30 17:49:05;;;;;;;91.03;40.43;;;;;;;13.47;100.00;99642.34;5136220;56;1143138;-77
2023/10/30 17:54:11;;;;;;;79.55;36.83;;;;;;;13.49;100.00;99641.20;5118454;56;1143291;-77
2023/10/30 17:59:19;;;;;;;143.13;77.17;;;;;;;13.50;100.00;99627.42;5135758;56;1143346;-73
2023/10/30 18:04:24;;;;;;;116.00;60.63;;;;;;;13.50;100.00;99613.65;5040696;56;1144979;-75
2023/10/30 18:09:30;;;;;;;257.07;104.77;;;;;;;13.47;100.00;99602.50;5049774;56;1145274;-75
2023/10/30 18:14:35;;;;;;;215.53;89.53;;;;;;;13.40;100.00;99573.60;5109993;56;1147094;-72
2023/10/30 18:19:42;;;;;;;126.33;44.50;;;;;;;13.35;100.00;99565.61;5122222;56;1145254;-78
2023/10/30 18:24:48;;;;;;;141.63;48.03;;;;;;;13.34;100.00;99559.95;5059235;56;1145161;-73
2023/10/30 18:29:53;;;;;;;129.07;44.90;;;;;;;13.37;100.00;99565.45;5041980;56;1145008;-75
2023/10/30 18:34:59;;;;;;;49.67;21.37;;;;;;;13.37;100.00;99558.31;5061628;57;1145199;-74
2023/10/30 18:40:06;;;;;;;28.67;11.50;;;;;;;13.33;100.00;99577.38;5056693;56;1143083;-75
2023/10/30 18:45:13;;;;;;;64.15;33.60;;;;;;;13.26;100.00;99566.58;5061298;56;1142923;-73
2023/10/30 18:50:19;;;;;;;54.10;25.00;;;;;;;13.23;100.00;99558.09;5145663;56;1142867;-75
2023/10/30 18:55:24;;;;;;;72.23;34.60;;;;;;;13.23;100.00;99550.13;5123057;56;1142909;-78
2023/10/30 19:00:31;;;;;;;79.67;41.93;;;;;;;13.24;100.00;99542.50;5125215;56;1142929;-78
2023/10/30 19:05:37;;;;;;;121.57;47.93;;;;;;;13.21;100.00;99537.01;5146033;56;1143283;-78
2023/10/30 19:10:42;;;;;;;118.23;54.73;;;;;;;13.20;100.00;99531.36;5125860;56;1145605;-75
2023/10/30 19:15:48;;;;;;;142.83;71.67;;;;;;;13.15;100.00;99533.65;5125850;56;1145466;-74
2023/10/30 19:20:55;;;;;;;79.37;42.70;;;;;;;13.15;100.00;99525.69;5125874;56;1145730;-74
2023/10/30 19:26:01;;;;;;;64.10;33.23;;;;;;;13.15;100.00;99520.87;5064717;56;1142889;-78
2023/10/30 19:31:07;;;;;;;80.17;41.40;;;;;;;13.15;100.00;99521.70;5041864;57;1143294;-77
2023/10/30 19:36:13;;;;;;;60.60;30.50;;;;;;;13.15;100.00;99508.42;5042162;57;1143186;-75
2023/10/30 19:41:19;;;;;;;72.70;26.35;;;;;;;13.16;100.00;99502.62;5061301;57;1142871;-74
2023/10/30 19:46:25;;;;;;;37.83;18.87;;;;;;;13.11;100.00;99496.45;5038649;56;1143505;-74
2023/10/30 19:51:30;;;;;;;41.17;20.20;;;;;;;13.09;100.00;99479.02;5079282;56;1142973;-71
2023/10/30 19:56:36;;;;;;;60.73;27.10;;;;;;;13.04;100.00;99463.07;5145296;56;1142937;-75
2023/10/30 20:01:41;;;;;;;52.97;22.73;;;;;;;13.00;100.00;99457.73;5118157;56;1143174;-77
2023/10/30 20:06:47;;;;;;;49.80;17.60;;;;;;;12.96;100.00;99445.80;5089321;56;1142793;-78
2023/10/30 20:11:56;;;;;;;34.10;16.07;;;;;;;12.94;100.00;99430.53;5098569;56;1143264;-72
2023/10/30 20:17:02;;;;;;;42.43;23.77;;;;;;;12.91;100.00;99427.36;5098613;56;1143324;-72
2023/10/30 20:22:07;;;;;;;36.90;19.10;;;;;;;12.88;100.00;99407.28;5108599;56;1143651;-76
2023/10/30 20:27:13;;;;;;;34.77;17.00;;;;;;;12.86;100.00;99384.05;5097527;56;1143440;-71
2023/10/30 20:32:18;;;;;;;31.65;14.18;;;;;;;12.83;100.00;99367.12;5112287;56;1143371;-73
2023/10/30 20:37:24;;;;;;;32.75;14.85;;;;;;;12.82;100.00;99353.55;5100281;56;1143008;-79
2023/10/30 20:42:30;;;;;;;24.07;11.50;;;;;;;12.81;100.00;99343.09;5103399;56;1142982;-74
2023/10/30 20:47:35;;;;;;;36.00;14.57;;;;;;;12.80;100.00;99333.47;5107079;56;1143406;-73
2023/10/30 20:52:41;;;;;;;30.27;13.23;;;;;;;12.80;100.00;99330.31;5098143;56;1143157;-72
2023/10/30 20:57:47;;;;;;;25.10;10.33;;;;;;;12.80;100.00;99317.05;5031276;56;1142829;-76
2023/10/30 21:02:52;;;;;;;32.77;12.10;;;;;;;12.80;100.00;99318.88;5014198;57;1143058;-74
2023/10/30 21:07:58;;;;;;;22.53;11.60;;;;;;;12.80;100.00;99314.89;5057366;56;1143042;-78
2023/10/30 21:13:04;;;;;;;30.00;12.00;;;;;;;12.77;100.00;99302.78;5011823;57;1143126;-73
2023/10/30 21:18:24;;;;;;;24.20;11.90;;;;;;;12.75;100.00;99286.69;5011282;56;1143182;-76
2023/10/30 21:23:17;;;;;;;24.52;12.88;;;;;;;12.72;100.00;99289.16;5027724;56;1143428;-73
2023/10/30 21:28:23;;;;;;;41.73;18.90;;;;;;;12.68;100.00;99283.84;5028943;56;1143064;-73
2023/10/30 21:33:28;;;;;;;34.13;19.30;;;;;;;12.66;100.00;99267.28;5041252;57;1143097;-76
2023/10/30 21:38:35;;;;;;;34.70;15.63;;;;;;;12.67;100.00;99263.63;5084925;56;1143092;-71
2023/10/30 21:43:40;;;;;;;34.23;15.67;;;;;;;12.62;100.00;99253.50;5026703;56;1143017;-73
2023/10/30 21:48:46;;;;;;;27.20;13.33;;;;;;;12.59;100.00;99243.71;5033119;56;1143109;-77
2023/10/30 21:53:53;;;;;;;40.83;16.53;;;;;;;12.56;100.00;99229.44;5054045;56;1142967;-77
2023/10/30 21:58:59;;;;;;;25.00;12.00;;;;;;;12.51;100.00;99211.88;5076377;56;1142973;-77
2023/10/30 22:04:04;;;;;;;32.57;13.50;;;;;;;12.48;100.00;99194.47;5083360;56;1142980;-74
2023/10/30 22:09:10;;;;;;;27.83;12.97;;;;;;;12.46;100.00;99189.83;5094230;56;1143086;-73
2023/10/30 22:14:15;;;;;;;21.47;11.23;;;;;;;12.42;100.00;99188.48;5125540;56;1143181;-76
2023/10/30 22:19:21;;;;;;;20.77;11.33;;;;;;;12.42;100.00;99201.73;5087996;56;1143168;-77
2023/10/30 22:24:26;;;;;;;28.50;15.13;;;;;;;12.41;100.00;99206.70;5057012;56;1143116;-75
2023/10/30 22:29:32;;;;;;;30.00;17.53;;;;;;;12.37;100.00;99200.09;5077383;56;1142901;-76
2023/10/30 22:34:38;;;;;;;30.40;14.20;;;;;;;12.38;100.00;99187.63;5057793;56;1143116;-71
2023/10/30 22:39:43;;;;;;;31.83;15.13;;;;;;;12.36;100.00;99187.00;5057502;57;1142888;-74
2023/10/30 22:44:49;;;;;;;27.20;16.63;;;;;;;12.33;100.00;99167.77;5077145;57;1143417;-76
2023/10/30 22:49:54;;;;;;;36.43;16.73;;;;;;;12.30;100.00;99145.55;5056553;57;1142969;-76
2023/10/30 22:55:00;;;;;;;34.30;16.17;;;;;;;12.28;100.00;99140.91;5057412;57;1143031;-72